sensor_id;sensor_type;location;lat;lon;timestamp;P1;durP1;ratioP1;P2;durP2;ratioP2
2386;SDS011;49473;50.772;8.768;2023-11-21T00:00:27;5.13;;;4.10;;
2386;SDS011;49473;50.772;8.768;2023-11-21T00:02:53;4.27;;;3.40;;
2386;SDS011;49473;50.772;8.768;2023-11-21T00:05:20;5.60;;;2.10;;
2386;SDS011;49473;50.772;8.768;2023-11-21T00:07:49;2.20;;;1.90;;
2386;SDS011;49473;50.772;8.768;2023-11-21T00:10:16;2.90;;;2.20;;
2386;SDS011;49473;50.772;8.768;2023-11-21T00:12:43;4.53;;;1.67;;
2386;SDS011;49473;50.772;8.768;2023-11-21T00:15:13;5.10;;;2.20;;
2386;SDS011;49473;50.772;8.768;2023-11-21T00:17:40;2.77;;;1.80;;
2386;SDS011;49473;50.772;8.768;2023-11-21T00:20:07;4.20;;;1.30;;
2386;SDS011;49473;50.772;8.768;2023-11-21T00:22:37;6.10;;;1.43;;
2386;SDS011;49473;50.772;8.768;2023-11-21T00:25:07;2.33;;;1.33;;
2386;SDS011;49473;50.772;8.768;2023-11-21T00:27:35;2.73;;;1.43;;
2386;SDS011;49473;50.772;8.768;2023-11-21T00:30:01;2.60;;;1.60;;
2386;SDS011;49473;50.772;8.768;2023-11-21T00:32:29;3.90;;;1.20;;
2386;SDS011;49473;50.772;8.768;2023-11-21T00:34:56;1.60;;;1.30;;
2386;SDS011;49473;50.772;8.768;2023-11-21T00:37:22;3.43;;;1.30;;
2386;SDS011;49473;50.772;8.768;2023-11-21T00:39:50;6.47;;;1.67;;
2386;SDS011;49473;50.772;8.768;2023-11-21T00:42:18;9.17;;;1.93;;
2386;SDS011;49473;50.772;8.768;2023-11-21T00:44:45;1.27;;;1.17;;
2386;SDS011;49473;50.772;8.768;2023-11-21T00:47:12;3.90;;;1.50;;
2386;SDS011;49473;50.772;8.768;2023-11-21T00:49:39;2.80;;;1.40;;
2386;SDS011;49473;50.772;8.768;2023-11-21T00:52:06;5.73;;;1.40;;
2386;SDS011;49473;50.772;8.768;2023-11-21T00:54:33;13.00;;;1.63;;
2386;SDS011;49473;50.772;8.768;2023-11-21T00:56:59;5.43;;;1.63;;
2386;SDS011;49473;50.772;8.768;2023-11-21T00:59:27;2.50;;;1.30;;
2386;SDS011;49473;50.772;8.768;2023-11-21T01:01:55;1.70;;;1.43;;
2386;SDS011;49473;50.772;8.768;2023-11-21T01:04:25;2.60;;;1.73;;
2386;SDS011;49473;50.772;8.768;2023-11-21T01:06:52;3.47;;;1.17;;
2386;SDS011;49473;50.772;8.768;2023-11-21T01:09:19;2.10;;;1.30;;
2386;SDS011;49473;50.772;8.768;2023-11-21T01:11:45;2.00;;;1.40;;
2386;SDS011;49473;50.772;8.768;2023-11-21T01:14:12;3.83;;;1.30;;
2386;SDS011;49473;50.772;8.768;2023-11-21T01:16:40;2.77;;;1.90;;
2386;SDS011;49473;50.772;8.768;2023-11-21T01:19:07;4.23;;;1.63;;
2386;SDS011;49473;50.772;8.768;2023-11-21T01:21:34;2.70;;;1.67;;
2386;SDS011;49473;50.772;8.768;2023-11-21T01:24:01;2.60;;;1.83;;
2386;SDS011;49473;50.772;8.768;2023-11-21T01:26:32;2.53;;;1.67;;
2386;SDS011;49473;50.772;8.768;2023-11-21T01:29:00;7.17;;;4.77;;
2386;SDS011;49473;50.772;8.768;2023-11-21T01:31:28;28.37;;;19.93;;
2386;SDS011;49473;50.772;8.768;2023-11-21T01:33:57;21.80;;;16.50;;
2386;SDS011;49473;50.772;8.768;2023-11-21T01:36:30;40.63;;;33.97;;
2386;SDS011;49473;50.772;8.768;2023-11-21T01:39:04;35.70;;;29.10;;
2386;SDS011;49473;50.772;8.768;2023-11-21T01:41:34;11.70;;;9.83;;
2386;SDS011;49473;50.772;8.768;2023-11-21T01:44:04;10.97;;;8.90;;
2386;SDS011;49473;50.772;8.768;2023-11-21T01:46:34;10.60;;;8.80;;
2386;SDS011;49473;50.772;8.768;2023-11-21T01:49:05;10.70;;;9.23;;
2386;SDS011;49473;50.772;8.768;2023-11-21T01:51:35;11.73;;;9.80;;
2386;SDS011;49473;50.772;8.768;2023-11-21T01:54:04;9.97;;;8.97;;
2386;SDS011;49473;50.772;8.768;2023-11-21T01:56:34;12.23;;;10.13;;
2386;SDS011;49473;50.772;8.768;2023-11-21T01:59:03;16.47;;;12.10;;
2386;SDS011;49473;50.772;8.768;2023-11-21T02:01:32;12.60;;;9.60;;
2386;SDS011;49473;50.772;8.768;2023-11-21T02:03:59;13.17;;;10.13;;
2386;SDS011;49473;50.772;8.768;2023-11-21T02:06:28;15.27;;;9.90;;
2386;SDS011;49473;50.772;8.768;2023-11-21T02:08:56;13.60;;;9.30;;
2386;SDS011;49473;50.772;8.768;2023-11-21T02:11:24;13.83;;;10.30;;
2386;SDS011;49473;50.772;8.768;2023-11-21T02:13:52;15.03;;;10.00;;
2386;SDS011;49473;50.772;8.768;2023-11-21T02:16:19;13.90;;;10.90;;
2386;SDS011;49473;50.772;8.768;2023-11-21T02:18:46;14.30;;;10.47;;
2386;SDS011;49473;50.772;8.768;2023-11-21T02:21:13;17.80;;;11.77;;
2386;SDS011;49473;50.772;8.768;2023-11-21T02:23:41;14.97;;;11.03;;
2386;SDS011;49473;50.772;8.768;2023-11-21T02:26:09;22.37;;;11.40;;
2386;SDS011;49473;50.772;8.768;2023-11-21T02:28:36;13.63;;;10.20;;
2386;SDS011;49473;50.772;8.768;2023-11-21T02:31:04;17.90;;;11.97;;
2386;SDS011;49473;50.772;8.768;2023-11-21T02:33:30;14.27;;;10.57;;
2386;SDS011;49473;50.772;8.768;2023-11-21T02:35:59;20.67;;;11.43;;
2386;SDS011;49473;50.772;8.768;2023-11-21T02:38:25;17.10;;;11.40;;
2386;SDS011;49473;50.772;8.768;2023-11-21T02:40:54;16.53;;;10.90;;
2386;SDS011;49473;50.772;8.768;2023-11-21T02:43:21;15.80;;;11.50;;
2386;SDS011;49473;50.772;8.768;2023-11-21T02:45:48;16.13;;;11.00;;
2386;SDS011;49473;50.772;8.768;2023-11-21T02:48:15;16.73;;;10.97;;
2386;SDS011;49473;50.772;8.768;2023-11-21T02:50:42;13.63;;;9.80;;
2386;SDS011;49473;50.772;8.768;2023-11-21T02:53:09;18.13;;;10.90;;
2386;SDS011;49473;50.772;8.768;2023-11-21T02:55:35;17.77;;;11.70;;
2386;SDS011;49473;50.772;8.768;2023-11-21T02:58:04;13.83;;;10.47;;
2386;SDS011;49473;50.772;8.768;2023-11-21T03:00:31;14.57;;;10.80;;
2386;SDS011;49473;50.772;8.768;2023-11-21T03:02:57;15.67;;;10.73;;
2386;SDS011;49473;50.772;8.768;2023-11-21T03:05:25;14.67;;;10.60;;
2386;SDS011;49473;50.772;8.768;2023-11-21T03:07:53;18.20;;;10.60;;
2386;SDS011;49473;50.772;8.768;2023-11-21T03:10:20;14.10;;;10.20;;
2386;SDS011;49473;50.772;8.768;2023-11-21T03:12:48;22.03;;;10.87;;
2386;SDS011;49473;50.772;8.768;2023-11-21T03:15:16;26.87;;;12.53;;
2386;SDS011;49473;50.772;8.768;2023-11-21T03:17:43;18.63;;;11.93;;
2386;SDS011;49473;50.772;8.768;2023-11-21T03:20:10;23.60;;;12.47;;
2386;SDS011;49473;50.772;8.768;2023-11-21T03:22:38;20.37;;;12.00;;
2386;SDS011;49473;50.772;8.768;2023-11-21T03:25:06;24.03;;;13.37;;
2386;SDS011;49473;50.772;8.768;2023-11-21T03:27:35;17.50;;;11.50;;
2386;SDS011;49473;50.772;8.768;2023-11-21T03:30:03;15.87;;;9.30;;
2386;SDS011;49473;50.772;8.768;2023-11-21T03:32:33;18.30;;;9.77;;
2386;SDS011;49473;50.772;8.768;2023-11-21T03:35:00;15.67;;;10.40;;
2386;SDS011;49473;50.772;8.768;2023-11-21T03:37:27;18.50;;;10.03;;
2386;SDS011;49473;50.772;8.768;2023-11-21T03:39:54;15.10;;;9.20;;
2386;SDS011;49473;50.772;8.768;2023-11-21T03:42:22;14.60;;;10.37;;
2386;SDS011;49473;50.772;8.768;2023-11-21T03:44:48;17.47;;;9.93;;
2386;SDS011;49473;50.772;8.768;2023-11-21T03:47:15;16.17;;;8.83;;
2386;SDS011;49473;50.772;8.768;2023-11-21T03:49:43;16.97;;;10.40;;
2386;SDS011;49473;50.772;8.768;2023-11-21T03:52:10;14.40;;;9.63;;
2386;SDS011;49473;50.772;8.768;2023-11-21T03:54:37;25.80;;;19.60;;
2386;SDS011;49473;50.772;8.768;2023-11-21T03:57:04;16.47;;;9.80;;
2386;SDS011;49473;50.772;8.768;2023-11-21T03:59:31;14.60;;;9.60;;
2386;SDS011;49473;50.772;8.768;2023-11-21T04:01:57;15.97;;;10.33;;
2386;SDS011;49473;50.772;8.768;2023-11-21T04:04:24;14.47;;;9.70;;
2386;SDS011;49473;50.772;8.768;2023-11-21T04:06:52;14.10;;;10.40;;
2386;SDS011;49473;50.772;8.768;2023-11-21T04:09:19;15.80;;;10.47;;
2386;SDS011;49473;50.772;8.768;2023-11-21T04:11:49;13.40;;;9.70;;
2386;SDS011;49473;50.772;8.768;2023-11-21T04:14:15;13.00;;;8.83;;
2386;SDS011;49473;50.772;8.768;2023-11-21T04:16:42;14.40;;;9.03;;
2386;SDS011;49473;50.772;8.768;2023-11-21T04:19:09;15.90;;;10.37;;
2386;SDS011;49473;50.772;8.768;2023-11-21T04:21:36;15.00;;;9.70;;
2386;SDS011;49473;50.772;8.768;2023-11-21T04:24:05;15.63;;;9.67;;
2386;SDS011;49473;50.772;8.768;2023-11-21T04:26:32;15.23;;;9.27;;
2386;SDS011;49473;50.772;8.768;2023-11-21T04:28:59;17.63;;;9.27;;
2386;SDS011;49473;50.772;8.768;2023-11-21T04:31:26;12.73;;;9.20;;
2386;SDS011;49473;50.772;8.768;2023-11-21T04:33:52;15.20;;;9.17;;
2386;SDS011;49473;50.772;8.768;2023-11-21T04:36:19;14.63;;;8.73;;
2386;SDS011;49473;50.772;8.768;2023-11-21T04:38:46;11.70;;;8.57;;
2386;SDS011;49473;50.772;8.768;2023-11-21T04:41:14;10.10;;;8.40;;
2386;SDS011;49473;50.772;8.768;2023-11-21T04:43:41;11.57;;;9.00;;
2386;SDS011;49473;50.772;8.768;2023-11-21T04:46:08;12.43;;;8.67;;
2386;SDS011;49473;50.772;8.768;2023-11-21T04:48:35;12.53;;;8.20;;
2386;SDS011;49473;50.772;8.768;2023-11-21T04:51:02;10.27;;;8.80;;
2386;SDS011;49473;50.772;8.768;2023-11-21T04:53:29;10.27;;;8.27;;
2386;SDS011;49473;50.772;8.768;2023-11-21T04:55:56;11.03;;;7.40;;
2386;SDS011;49473;50.772;8.768;2023-11-21T04:58:24;13.27;;;8.27;;
2386;SDS011;49473;50.772;8.768;2023-11-21T05:00:51;11.60;;;8.57;;
2386;SDS011;49473;50.772;8.768;2023-11-21T05:03:17;12.20;;;8.73;;
2386;SDS011;49473;50.772;8.768;2023-11-21T05:05:44;12.23;;;8.07;;
2386;SDS011;49473;50.772;8.768;2023-11-21T05:08:11;12.90;;;8.73;;
2386;SDS011;49473;50.772;8.768;2023-11-21T05:10:38;14.83;;;9.00;;
2386;SDS011;49473;50.772;8.768;2023-11-21T05:13:05;13.00;;;9.33;;
2386;SDS011;49473;50.772;8.768;2023-11-21T05:15:36;12.13;;;8.23;;
2386;SDS011;49473;50.772;8.768;2023-11-21T05:18:03;11.30;;;7.63;;
2386;SDS011;49473;50.772;8.768;2023-11-21T05:20:30;11.63;;;8.20;;
2386;SDS011;49473;50.772;8.768;2023-11-21T05:22:58;12.53;;;9.47;;
2386;SDS011;49473;50.772;8.768;2023-11-21T05:25:24;14.20;;;9.17;;
2386;SDS011;49473;50.772;8.768;2023-11-21T05:27:51;13.17;;;8.43;;
2386;SDS011;49473;50.772;8.768;2023-11-21T05:30:19;11.43;;;8.30;;
2386;SDS011;49473;50.772;8.768;2023-11-21T05:32:48;11.27;;;8.63;;
2386;SDS011;49473;50.772;8.768;2023-11-21T05:35:15;12.97;;;9.17;;
2386;SDS011;49473;50.772;8.768;2023-11-21T05:37:42;11.40;;;9.33;;
2386;SDS011;49473;50.772;8.768;2023-11-21T05:40:10;11.23;;;8.50;;
2386;SDS011;49473;50.772;8.768;2023-11-21T05:42:38;11.20;;;8.90;;
2386;SDS011;49473;50.772;8.768;2023-11-21T05:45:06;10.87;;;8.30;;
2386;SDS011;49473;50.772;8.768;2023-11-21T05:47:36;14.07;;;8.43;;
2386;SDS011;49473;50.772;8.768;2023-11-21T05:50:06;10.37;;;8.50;;
2386;SDS011;49473;50.772;8.768;2023-11-21T05:52:36;13.60;;;7.90;;
2386;SDS011;49473;50.772;8.768;2023-11-21T05:55:03;11.40;;;7.80;;
2386;SDS011;49473;50.772;8.768;2023-11-21T05:57:32;11.13;;;7.47;;
2386;SDS011;49473;50.772;8.768;2023-11-21T05:59:59;10.40;;;7.73;;
2386;SDS011;49473;50.772;8.768;2023-11-21T06:02:28;8.70;;;7.50;;
2386;SDS011;49473;50.772;8.768;2023-11-21T06:04:55;8.30;;;7.40;;
2386;SDS011;49473;50.772;8.768;2023-11-21T06:07:23;12.43;;;8.23;;
2386;SDS011;49473;50.772;8.768;2023-11-21T06:09:50;18.67;;;8.90;;
2386;SDS011;49473;50.772;8.768;2023-11-21T06:12:16;9.80;;;7.03;;
2386;SDS011;49473;50.772;8.768;2023-11-21T06:14:45;8.00;;;7.20;;
2386;SDS011;49473;50.772;8.768;2023-11-21T06:17:13;10.80;;;8.00;;
2386;SDS011;49473;50.772;8.768;2023-11-21T06:19:39;9.20;;;8.20;;
2386;SDS011;49473;50.772;8.768;2023-11-21T06:22:06;11.60;;;8.80;;
2386;SDS011;49473;50.772;8.768;2023-11-21T06:24:35;11.00;;;9.30;;
2386;SDS011;49473;50.772;8.768;2023-11-21T06:27:03;12.43;;;8.90;;
2386;SDS011;49473;50.772;8.768;2023-11-21T06:29:30;9.27;;;8.10;;
2386;SDS011;49473;50.772;8.768;2023-11-21T06:31:57;10.60;;;8.70;;
2386;SDS011;49473;50.772;8.768;2023-11-21T06:34:24;10.40;;;7.97;;
2386;SDS011;49473;50.772;8.768;2023-11-21T06:36:52;10.77;;;7.80;;
2386;SDS011;49473;50.772;8.768;2023-11-21T06:39:19;10.47;;;8.07;;
2386;SDS011;49473;50.772;8.768;2023-11-21T06:41:49;9.30;;;8.30;;
2386;SDS011;49473;50.772;8.768;2023-11-21T06:44:15;8.80;;;7.67;;
2386;SDS011;49473;50.772;8.768;2023-11-21T06:46:42;12.37;;;8.00;;
2386;SDS011;49473;50.772;8.768;2023-11-21T06:49:10;10.03;;;8.43;;
2386;SDS011;49473;50.772;8.768;2023-11-21T06:51:37;9.77;;;7.90;;
2386;SDS011;49473;50.772;8.768;2023-11-21T06:54:04;9.80;;;8.60;;
2386;SDS011;49473;50.772;8.768;2023-11-21T06:56:31;10.27;;;8.60;;
2386;SDS011;49473;50.772;8.768;2023-11-21T06:59:00;11.87;;;9.03;;
2386;SDS011;49473;50.772;8.768;2023-11-21T07:01:26;12.97;;;8.00;;
2386;SDS011;49473;50.772;8.768;2023-11-21T07:03:53;10.37;;;9.10;;
2386;SDS011;49473;50.772;8.768;2023-11-21T07:06:20;9.23;;;8.33;;
2386;SDS011;49473;50.772;8.768;2023-11-21T07:08:46;10.07;;;9.03;;
2386;SDS011;49473;50.772;8.768;2023-11-21T07:11:13;13.13;;;8.70;;
2386;SDS011;49473;50.772;8.768;2023-11-21T07:13:40;9.57;;;8.57;;
2386;SDS011;49473;50.772;8.768;2023-11-21T07:16:08;8.00;;;7.20;;
2386;SDS011;49473;50.772;8.768;2023-11-21T07:18:35;9.90;;;7.77;;
2386;SDS011;49473;50.772;8.768;2023-11-21T07:21:02;11.70;;;10.50;;
2386;SDS011;49473;50.772;8.768;2023-11-21T07:23:30;9.00;;;7.80;;
2386;SDS011;49473;50.772;8.768;2023-11-21T07:25:57;9.60;;;7.30;;
2386;SDS011;49473;50.772;8.768;2023-11-21T07:28:24;8.00;;;7.00;;
2386;SDS011;49473;50.772;8.768;2023-11-21T07:30:51;12.93;;;7.40;;
2386;SDS011;49473;50.772;8.768;2023-11-21T07:33:19;14.10;;;10.40;;
2386;SDS011;49473;50.772;8.768;2023-11-21T07:35:46;11.53;;;10.00;;
2386;SDS011;49473;50.772;8.768;2023-11-21T07:38:13;7.83;;;6.90;;
2386;SDS011;49473;50.772;8.768;2023-11-21T07:40:40;20.00;;;15.20;;
2386;SDS011;49473;50.772;8.768;2023-11-21T07:43:06;13.67;;;12.27;;
2386;SDS011;49473;50.772;8.768;2023-11-21T07:45:34;9.80;;;8.57;;
2386;SDS011;49473;50.772;8.768;2023-11-21T07:48:00;8.27;;;7.47;;
2386;SDS011;49473;50.772;8.768;2023-11-21T07:50:29;7.80;;;7.00;;
2386;SDS011;49473;50.772;8.768;2023-11-21T07:52:57;8.13;;;6.97;;
2386;SDS011;49473;50.772;8.768;2023-11-21T07:55:24;7.60;;;6.80;;
2386;SDS011;49473;50.772;8.768;2023-11-21T07:57:51;7.80;;;7.00;;
2386;SDS011;49473;50.772;8.768;2023-11-21T08:00:18;6.97;;;6.20;;
2386;SDS011;49473;50.772;8.768;2023-11-21T08:02:46;9.47;;;6.80;;
2386;SDS011;49473;50.772;8.768;2023-11-21T08:05:13;9.73;;;7.83;;
2386;SDS011;49473;50.772;8.768;2023-11-21T08:07:41;9.07;;;8.27;;
2386;SDS011;49473;50.772;8.768;2023-11-21T08:10:08;11.37;;;10.27;;
2386;SDS011;49473;50.772;8.768;2023-11-21T08:12:37;10.27;;;9.20;;
2386;SDS011;49473;50.772;8.768;2023-11-21T08:15:04;9.80;;;8.80;;
2386;SDS011;49473;50.772;8.768;2023-11-21T08:17:32;10.13;;;8.40;;
2386;SDS011;49473;50.772;8.768;2023-11-21T08:20:00;9.90;;;9.00;;
2386;SDS011;49473;50.772;8.768;2023-11-21T08:22:28;14.10;;;8.83;;
2386;SDS011;49473;50.772;8.768;2023-11-21T08:24:57;7.77;;;6.97;;
2386;SDS011;49473;50.772;8.768;2023-11-21T08:27:23;10.23;;;7.77;;
2386;SDS011;49473;50.772;8.768;2023-11-21T08:29:50;10.27;;;7.40;;
2386;SDS011;49473;50.772;8.768;2023-11-21T08:32:17;12.23;;;7.57;;
2386;SDS011;49473;50.772;8.768;2023-11-21T08:34:44;8.73;;;7.90;;
2386;SDS011;49473;50.772;8.768;2023-11-21T08:37:14;10.20;;;8.57;;
2386;SDS011;49473;50.772;8.768;2023-11-21T08:39:41;10.03;;;8.43;;
2386;SDS011;49473;50.772;8.768;2023-11-21T08:42:09;19.80;;;15.17;;
2386;SDS011;49473;50.772;8.768;2023-11-21T08:44:36;22.57;;;17.40;;
2386;SDS011;49473;50.772;8.768;2023-11-21T08:47:03;11.70;;;8.57;;
2386;SDS011;49473;50.772;8.768;2023-11-21T08:49:30;8.60;;;7.70;;
2386;SDS011;49473;50.772;8.768;2023-11-21T08:51:57;11.13;;;8.00;;
2386;SDS011;49473;50.772;8.768;2023-11-21T08:54:24;7.43;;;6.73;;
2386;SDS011;49473;50.772;8.768;2023-11-21T08:56:51;10.07;;;9.07;;
2386;SDS011;49473;50.772;8.768;2023-11-21T08:59:21;8.90;;;8.00;;
2386;SDS011;49473;50.772;8.768;2023-11-21T09:01:47;7.93;;;7.10;;
2386;SDS011;49473;50.772;8.768;2023-11-21T09:04:15;9.50;;;8.50;;
2386;SDS011;49473;50.772;8.768;2023-11-21T09:06:41;7.10;;;6.40;;
2386;SDS011;49473;50.772;8.768;2023-11-21T09:09:08;7.93;;;7.13;;
2386;SDS011;49473;50.772;8.768;2023-11-21T09:11:36;8.37;;;7.30;;
2386;SDS011;49473;50.772;8.768;2023-11-21T09:14:03;8.77;;;6.87;;
2386;SDS011;49473;50.772;8.768;2023-11-21T09:16:31;7.87;;;7.17;;
2386;SDS011;49473;50.772;8.768;2023-11-21T09:18:58;9.43;;;6.60;;
2386;SDS011;49473;50.772;8.768;2023-11-21T09:21:25;7.20;;;6.60;;
2386;SDS011;49473;50.772;8.768;2023-11-21T09:23:52;7.53;;;6.83;;
2386;SDS011;49473;50.772;8.768;2023-11-21T09:26:19;10.33;;;6.63;;
2386;SDS011;49473;50.772;8.768;2023-11-21T09:28:46;6.80;;;6.10;;
2386;SDS011;49473;50.772;8.768;2023-11-21T09:31:13;7.70;;;7.00;;
2386;SDS011;49473;50.772;8.768;2023-11-21T09:33:42;7.23;;;6.53;;
2386;SDS011;49473;50.772;8.768;2023-11-21T09:36:11;7.83;;;7.03;;
2386;SDS011;49473;50.772;8.768;2023-11-21T09:38:39;8.17;;;6.77;;
2386;SDS011;49473;50.772;8.768;2023-11-21T09:41:06;8.00;;;7.20;;
2386;SDS011;49473;50.772;8.768;2023-11-21T09:43:42;7.30;;;6.40;;
2386;SDS011;49473;50.772;8.768;2023-11-21T09:46:11;10.27;;;6.97;;
2386;SDS011;49473;50.772;8.768;2023-11-21T09:48:46;7.33;;;6.63;;
2386;SDS011;49473;50.772;8.768;2023-11-21T09:51:17;6.77;;;5.80;;
2386;SDS011;49473;50.772;8.768;2023-11-21T09:53:47;7.00;;;6.30;;
2386;SDS011;49473;50.772;8.768;2023-11-21T09:56:17;7.30;;;6.30;;
2386;SDS011;49473;50.772;8.768;2023-11-21T09:58:50;8.00;;;5.93;;
2386;SDS011;49473;50.772;8.768;2023-11-21T10:01:18;7.50;;;6.60;;
2386;SDS011;49473;50.772;8.768;2023-11-21T10:03:48;7.03;;;6.33;;
2386;SDS011;49473;50.772;8.768;2023-11-21T10:06:15;7.50;;;6.80;;
2386;SDS011;49473;50.772;8.768;2023-11-21T10:08:43;9.50;;;6.37;;
2386;SDS011;49473;50.772;8.768;2023-11-21T10:11:11;7.90;;;6.23;;
2386;SDS011;49473;50.772;8.768;2023-11-21T10:13:40;8.23;;;6.20;;
2386;SDS011;49473;50.772;8.768;2023-11-21T10:16:08;5.90;;;4.70;;
2386;SDS011;49473;50.772;8.768;2023-11-21T10:18:38;10.07;;;6.03;;
2386;SDS011;49473;50.772;8.768;2023-11-21T10:21:07;5.83;;;4.80;;
2386;SDS011;49473;50.772;8.768;2023-11-21T10:23:36;7.30;;;5.20;;
2386;SDS011;49473;50.772;8.768;2023-11-21T10:26:03;8.23;;;5.80;;
2386;SDS011;49473;50.772;8.768;2023-11-21T10:28:35;9.00;;;5.63;;
2386;SDS011;49473;50.772;8.768;2023-11-21T10:31:02;6.63;;;5.20;;
2386;SDS011;49473;50.772;8.768;2023-11-21T10:33:32;6.03;;;5.30;;
2386;SDS011;49473;50.772;8.768;2023-11-21T10:35:59;6.67;;;6.07;;
2386;SDS011;49473;50.772;8.768;2023-11-21T10:38:28;6.90;;;5.57;;
2386;SDS011;49473;50.772;8.768;2023-11-21T10:41:09;6.27;;;5.67;;
2386;SDS011;49473;50.772;8.768;2023-11-21T10:43:39;5.40;;;5.00;;
2386;SDS011;49473;50.772;8.768;2023-11-21T10:46:05;6.53;;;5.57;;
2386;SDS011;49473;50.772;8.768;2023-11-21T10:48:32;6.47;;;5.87;;
2386;SDS011;49473;50.772;8.768;2023-11-21T10:51:01;7.80;;;5.97;;
2386;SDS011;49473;50.772;8.768;2023-11-21T10:53:35;5.97;;;5.37;;
2386;SDS011;49473;50.772;8.768;2023-11-21T10:56:06;8.20;;;5.20;;
2386;SDS011;49473;50.772;8.768;2023-11-21T10:58:35;6.93;;;6.30;;
2386;SDS011;49473;50.772;8.768;2023-11-21T11:01:05;8.07;;;6.30;;
2386;SDS011;49473;50.772;8.768;2023-11-21T11:03:33;6.77;;;5.87;;
2386;SDS011;49473;50.772;8.768;2023-11-21T11:06:03;9.50;;;6.90;;
2386;SDS011;49473;50.772;8.768;2023-11-21T11:08:37;7.23;;;6.53;;
2386;SDS011;49473;50.772;8.768;2023-11-21T11:11:05;9.93;;;6.17;;
2386;SDS011;49473;50.772;8.768;2023-11-21T11:13:32;7.70;;;5.83;;
2386;SDS011;49473;50.772;8.768;2023-11-21T11:15:59;9.37;;;7.03;;
2386;SDS011;49473;50.772;8.768;2023-11-21T11:18:27;8.90;;;6.53;;
2386;SDS011;49473;50.772;8.768;2023-11-21T11:20:55;7.27;;;6.50;;
2386;SDS011;49473;50.772;8.768;2023-11-21T11:23:32;7.30;;;6.03;;
2386;SDS011;49473;50.772;8.768;2023-11-21T11:26:12;10.63;;;6.40;;
2386;SDS011;49473;50.772;8.768;2023-11-21T11:28:51;10.00;;;7.50;;
2386;SDS011;49473;50.772;8.768;2023-11-21T11:31:26;11.07;;;8.93;;
2386;SDS011;49473;50.772;8.768;2023-11-21T11:34:05;12.03;;;6.73;;
2386;SDS011;49473;50.772;8.768;2023-11-21T11:36:43;8.83;;;6.97;;
2386;SDS011;49473;50.772;8.768;2023-11-21T11:39:28;7.80;;;6.60;;
2386;SDS011;49473;50.772;8.768;2023-11-21T11:41:55;8.97;;;6.83;;
2386;SDS011;49473;50.772;8.768;2023-11-21T11:47:16;11.00;;;6.80;;
2386;SDS011;49473;50.772;8.768;2023-11-21T11:49:56;8.40;;;7.00;;
2386;SDS011;49473;50.772;8.768;2023-11-21T11:52:33;9.50;;;6.83;;
2386;SDS011;49473;50.772;8.768;2023-11-21T11:55:02;10.90;;;7.43;;
2386;SDS011;49473;50.772;8.768;2023-11-21T11:57:30;9.83;;;6.93;;
2386;SDS011;49473;50.772;8.768;2023-11-21T12:00:11;13.13;;;7.70;;
2386;SDS011;49473;50.772;8.768;2023-11-21T12:02:44;12.80;;;9.70;;
2386;SDS011;49473;50.772;8.768;2023-11-21T12:05:13;10.93;;;9.00;;
2386;SDS011;49473;50.772;8.768;2023-11-21T12:07:41;11.27;;;9.13;;
2386;SDS011;49473;50.772;8.768;2023-11-21T12:10:12;10.43;;;9.30;;
2386;SDS011;49473;50.772;8.768;2023-11-21T12:12:43;9.83;;;8.77;;
2386;SDS011;49473;50.772;8.768;2023-11-21T12:15:14;10.50;;;9.40;;
2386;SDS011;49473;50.772;8.768;2023-11-21T12:17:41;9.30;;;8.30;;
2386;SDS011;49473;50.772;8.768;2023-11-21T12:20:09;11.77;;;8.67;;
2386;SDS011;49473;50.772;8.768;2023-11-21T12:22:43;9.07;;;8.17;;
2386;SDS011;49473;50.772;8.768;2023-11-21T12:25:15;10.00;;;8.70;;
2386;SDS011;49473;50.772;8.768;2023-11-21T12:27:43;16.47;;;9.73;;
2386;SDS011;49473;50.772;8.768;2023-11-21T12:30:11;19.23;;;9.53;;
2386;SDS011;49473;50.772;8.768;2023-11-21T12:32:40;12.97;;;9.60;;
2386;SDS011;49473;50.772;8.768;2023-11-21T12:35:08;11.10;;;8.70;;
2386;SDS011;49473;50.772;8.768;2023-11-21T12:37:36;13.20;;;11.47;;
2386;SDS011;49473;50.772;8.768;2023-11-21T12:40:04;8.77;;;7.70;;
2386;SDS011;49473;50.772;8.768;2023-11-21T12:42:34;10.33;;;9.33;;
2386;SDS011;49473;50.772;8.768;2023-11-21T12:45:07;10.83;;;8.70;;
2386;SDS011;49473;50.772;8.768;2023-11-21T12:47:39;12.57;;;10.20;;
2386;SDS011;49473;50.772;8.768;2023-11-21T12:50:07;13.10;;;9.07;;
2386;SDS011;49473;50.772;8.768;2023-11-21T12:52:39;11.17;;;8.03;;
2386;SDS011;49473;50.772;8.768;2023-11-21T12:55:09;12.83;;;8.90;;
2386;SDS011;49473;50.772;8.768;2023-11-21T12:57:41;12.30;;;8.90;;
2386;SDS011;49473;50.772;8.768;2023-11-21T13:00:09;9.43;;;7.70;;
2386;SDS011;49473;50.772;8.768;2023-11-21T13:02:51;12.00;;;10.07;;
2386;SDS011;49473;50.772;8.768;2023-11-21T13:05:25;12.50;;;8.50;;
2386;SDS011;49473;50.772;8.768;2023-11-21T13:07:53;26.33;;;20.50;;
2386;SDS011;49473;50.772;8.768;2023-11-21T13:10:22;15.73;;;13.70;;
2386;SDS011;49473;50.772;8.768;2023-11-21T13:12:52;15.93;;;12.60;;
2386;SDS011;49473;50.772;8.768;2023-11-21T13:15:20;18.60;;;13.40;;
2386;SDS011;49473;50.772;8.768;2023-11-21T13:17:46;13.93;;;11.43;;
2386;SDS011;49473;50.772;8.768;2023-11-21T13:20:15;10.60;;;8.40;;
2386;SDS011;49473;50.772;8.768;2023-11-21T13:22:48;13.60;;;9.47;;
2386;SDS011;49473;50.772;8.768;2023-11-21T13:25:18;12.60;;;9.63;;
2386;SDS011;49473;50.772;8.768;2023-11-21T13:27:45;11.93;;;10.33;;
2386;SDS011;49473;50.772;8.768;2023-11-21T13:30:14;14.70;;;11.27;;
2386;SDS011;49473;50.772;8.768;2023-11-21T13:32:42;13.80;;;11.70;;
2386;SDS011;49473;50.772;8.768;2023-11-21T13:35:11;21.87;;;12.03;;
2386;SDS011;49473;50.772;8.768;2023-11-21T13:37:46;12.20;;;11.00;;
2386;SDS011;49473;50.772;8.768;2023-11-21T13:40:16;13.53;;;11.80;;
2386;SDS011;49473;50.772;8.768;2023-11-21T13:42:47;14.60;;;11.33;;
2386;SDS011;49473;50.772;8.768;2023-11-21T13:45:19;20.20;;;12.93;;
2386;SDS011;49473;50.772;8.768;2023-11-21T13:47:50;19.50;;;12.07;;
2386;SDS011;49473;50.772;8.768;2023-11-21T13:50:17;19.43;;;12.43;;
2386;SDS011;49473;50.772;8.768;2023-11-21T13:52:48;14.10;;;12.07;;
2386;SDS011;49473;50.772;8.768;2023-11-21T13:55:16;19.80;;;10.60;;
2386;SDS011;49473;50.772;8.768;2023-11-21T13:57:43;15.43;;;10.43;;
2386;SDS011;49473;50.772;8.768;2023-11-21T14:00:14;14.60;;;11.17;;
2386;SDS011;49473;50.772;8.768;2023-11-21T14:03:03;17.03;;;12.13;;
2386;SDS011;49473;50.772;8.768;2023-11-21T14:05:35;12.80;;;11.40;;
2386;SDS011;49473;50.772;8.768;2023-11-21T14:08:02;15.93;;;12.30;;
2386;SDS011;49473;50.772;8.768;2023-11-21T14:10:29;15.20;;;12.57;;
2386;SDS011;49473;50.772;8.768;2023-11-21T14:13:05;18.67;;;12.93;;
2386;SDS011;49473;50.772;8.768;2023-11-21T14:15:32;13.13;;;10.73;;
2386;SDS011;49473;50.772;8.768;2023-11-21T14:18:04;14.43;;;12.00;;
2386;SDS011;49473;50.772;8.768;2023-11-21T14:20:33;17.43;;;11.30;;
2386;SDS011;49473;50.772;8.768;2023-11-21T14:23:01;13.20;;;10.67;;
2386;SDS011;49473;50.772;8.768;2023-11-21T14:25:28;14.83;;;12.47;;
2386;SDS011;49473;50.772;8.768;2023-11-21T14:27:55;16.17;;;12.80;;
2386;SDS011;49473;50.772;8.768;2023-11-21T14:30:22;15.53;;;12.00;;
2386;SDS011;49473;50.772;8.768;2023-11-21T14:32:50;12.70;;;9.73;;
2386;SDS011;49473;50.772;8.768;2023-11-21T14:35:18;13.67;;;10.47;;
2386;SDS011;49473;50.772;8.768;2023-11-21T14:37:45;11.13;;;9.33;;
2386;SDS011;49473;50.772;8.768;2023-11-21T14:40:12;11.20;;;8.87;;
2386;SDS011;49473;50.772;8.768;2023-11-21T14:42:41;11.20;;;8.30;;
2386;SDS011;49473;50.772;8.768;2023-11-21T14:45:12;8.27;;;7.40;;
2386;SDS011;49473;50.772;8.768;2023-11-21T14:47:44;11.30;;;7.57;;
2386;SDS011;49473;50.772;8.768;2023-11-21T14:50:18;10.90;;;6.90;;
2386;SDS011;49473;50.772;8.768;2023-11-21T14:53:16;8.90;;;7.50;;
2386;SDS011;49473;50.772;8.768;2023-11-21T14:56:04;11.50;;;8.20;;
2386;SDS011;49473;50.772;8.768;2023-11-21T14:58:32;8.10;;;7.00;;
2386;SDS011;49473;50.772;8.768;2023-11-21T15:01:00;11.27;;;7.53;;